Time,TemperatureF,DewpointF,PressureIn,WindDirection,WindDirectionDegrees,WindSpeedMPH,WindSpeedGustMPH,Humidity,HourlyPrecipIn,Conditions,Clouds,dailyrainin,SoftwareType,DateUTC
2013-02-11 00:01:00,73.0,70.5,30.00,SSE,168,5.0,18.0,92,0.00,,,0.11,meteohub,2013-02-11 06:01:00,
2013-02-11 00:06:00,73.0,70.9,30.01,SSW,213,7.0,12.0,93,0.00,,,0.00,meteohub,2013-02-11 06:06:00,
2013-02-11 00:11:00,72.9,70.3,30.00,SSW,193,6.0,14.0,92,0.00,,,0.00,meteohub,2013-02-11 06:11:00,
2013-02-11 00:16:00,72.9,70.3,30.00,South,177,2.0,14.0,92,0.00,,,0.00,meteohub,2013-02-11 06:16:00,
2013-02-11 00:21:00,72.9,70.7,30.00,SSW,194,9.0,14.0,93,0.00,,,0.00,meteohub,2013-02-11 06:21:00,
2013-02-11 00:26:00,72.5,69.8,30.00,SSW,207,7.0,14.0,91,0.00,,,0.00,meteohub,2013-02-11 06:26:00,
2013-02-11 00:31:00,72.5,69.8,30.00,South,171,4.0,13.0,91,0.00,,,0.00,meteohub,2013-02-11 06:31:00,
2013-02-11 00:36:00,72.3,69.8,30.00,SSE,149,0.0,12.0,92,0.00,,,0.00,meteohub,2013-02-11 06:36:00,
2013-02-11 00:42:00,72.3,69.8,30.00,SSE,168,4.0,11.0,92,0.00,,,0.00,meteohub,2013-02-11 06:42:00,
2013-02-11 00:47:00,72.3,69.8,30.00,South,176,6.0,10.0,92,0.00,,,0.00,meteohub,2013-02-11 06:47:00,
2013-02-11 00:52:00,72.3,69.8,30.00,South,177,7.0,10.0,92,0.00,,,0.00,meteohub,2013-02-11 06:52:00,
2013-02-11 00:57:00,72.3,70.2,30.00,South,175,11.0,11.0,93,0.00,,,0.00,meteohub,2013-02-11 06:57:00,
2013-02-11 01:02:00,72.3,70.2,30.00,SSW,209,7.0,15.0,93,0.00,,,0.00,meteohub,2013-02-11 07:02:00,
2013-02-11 01:07:00,72.3,69.8,30.00,SSE,168,10.0,15.0,92,0.00,,,0.00,meteohub,2013-02-11 07:07:00,
2013-02-11 01:12:00,72.3,70.2,30.00,SSW,209,7.0,15.0,93,0.00,,,0.00,meteohub,2013-02-11 07:12:00,
2013-02-11 01:17:00,72.3,70.2,29.99,SSE,163,6.0,15.0,93,0.00,,,0.00,meteohub,2013-02-11 07:17:00,
2013-02-11 01:22:00,72.3,70.2,29.99,South,190,5.0,15.0,93,0.00,,,0.00,meteohub,2013-02-11 07:22:00,
2013-02-11 01:27:00,72.1,70.0,29.99,South,181,4.0,15.0,93,0.00,,,0.00,meteohub,2013-02-11 07:27:00,
2013-02-11 01:32:00,72.1,70.0,29.99,South,190,6.0,14.0,93,0.00,,,0.00,meteohub,2013-02-11 07:32:00,
2013-02-11 01:37:00,72.0,69.4,29.99,South,182,3.0,14.0,92,0.00,,,0.00,meteohub,2013-02-11 07:37:00,
2013-02-11 01:42:00,72.1,70.0,29.99,SSW,213,6.0,13.0,93,0.00,,,0.00,meteohub,2013-02-11 07:42:00,
2013-02-11 01:47:00,72.1,70.0,29.99,South,181,10.0,17.0,93,0.00,,,0.00,meteohub,2013-02-11 07:47:00,
2013-02-11 01:52:00,72.1,70.0,29.99,South,175,12.0,17.0,93,0.00,,,0.00,meteohub,2013-02-11 07:52:00,
2013-02-11 01:57:00,72.1,70.0,29.99,South,176,9.0,17.0,93,0.00,,,0.00,meteohub,2013-02-11 07:57:00,
2013-02-11 02:02:00,72.0,69.8,29.99,SSW,196,5.0,12.0,93,0.00,,,0.00,meteohub,2013-02-11 08:02:00,
2013-02-11 02:07:00,72.0,69.8,29.99,SSW,209,7.0,13.0,93,0.00,,,0.00,meteohub,2013-02-11 08:07:00,
2013-02-11 02:12:00,71.8,69.6,29.99,South,180,5.0,13.0,93,0.00,,,0.00,meteohub,2013-02-11 08:12:00,
2013-02-11 02:17:00,72.0,70.2,29.99,South,182,10.0,13.0,94,0.00,,,0.00,meteohub,2013-02-11 08:17:00,
2013-02-11 02:22:00,71.4,69.3,29.99,SSE,157,8.0,13.0,93,0.00,,,0.00,meteohub,2013-02-11 08:22:00,
2013-02-11 02:27:00,71.2,69.1,29.99,SSE,161,5.0,13.0,93,0.00,,,0.00,meteohub,2013-02-11 08:27:00,
2013-02-11 02:32:00,71.2,69.1,29.99,WSW,248,6.0,13.0,93,0.00,,,0.00,meteohub,2013-02-11 08:32:00,
2013-02-11 02:37:00,71.4,69.6,29.99,South,190,5.0,14.0,94,0.00,,,0.00,meteohub,2013-02-11 08:37:00,
2013-02-11 02:42:00,71.4,69.6,29.99,South,190,8.0,14.0,94,0.00,,,0.00,meteohub,2013-02-11 08:42:00,
2013-02-11 02:47:00,71.4,69.6,29.99,SSW,196,7.0,14.0,94,0.00,,,0.00,meteohub,2013-02-11 08:47:00,
2013-02-11 02:52:00,71.8,70.3,29.99,South,186,8.0,13.0,95,0.00,,,0.00,meteohub,2013-02-11 08:52:00,
2013-02-11 02:57:00,71.8,70.3,29.99,SSE,165,9.0,13.0,95,0.00,,,0.00,meteohub,2013-02-11 08:57:00,
2013-02-11 03:02:00,71.8,70.3,29.99,SSW,198,11.0,14.0,95,0.00,,,0.00,meteohub,2013-02-11 09:02:00,
2013-02-11 03:07:00,72.0,70.5,29.99,SW,223,4.0,16.0,95,0.00,,,0.00,meteohub,2013-02-11 09:07:00,
2013-02-11 03:12:00,72.0,70.5,29.99,SSW,192,8.0,16.0,95,0.00,,,0.00,meteohub,2013-02-11 09:12:00,
2013-02-11 03:17:00,72.0,70.5,29.99,South,182,4.0,16.0,95,0.00,,,0.00,meteohub,2013-02-11 09:17:00,
2013-02-11 03:22:00,71.8,70.0,29.99,WSW,246,4.0,14.0,94,0.00,,,0.00,meteohub,2013-02-11 09:22:00,
2013-02-11 03:27:00,71.2,69.4,29.99,WSW,245,5.0,14.0,94,0.00,,,0.00,meteohub,2013-02-11 09:27:00,
2013-02-11 03:32:00,71.1,69.3,29.99,WSW,238,10.0,14.0,94,0.00,,,0.00,meteohub,2013-02-11 09:32:00,
2013-02-11 03:37:00,71.1,69.6,29.99,WSW,248,11.0,14.0,95,0.00,,,0.00,meteohub,2013-02-11 09:37:00,
2013-02-11 03:42:00,71.1,69.3,29.99,WSW,245,10.0,16.0,94,0.00,,,0.00,meteohub,2013-02-11 09:42:00,
2013-02-11 03:47:00,71.1,69.6,29.99,SW,229,6.0,16.0,95,0.00,,,0.00,meteohub,2013-02-11 09:47:00,
2013-02-11 03:52:00,71.4,70.0,29.99,South,180,6.0,16.0,95,0.00,,,0.00,meteohub,2013-02-11 09:52:00,
2013-02-11 03:57:00,71.6,70.2,29.98,SSW,197,3.0,13.0,95,0.00,,,0.00,meteohub,2013-02-11 09:57:00,
2013-02-11 04:02:00,71.6,70.2,29.98,SSW,210,2.0,13.0,95,0.00,,,0.00,meteohub,2013-02-11 10:02:00,
2013-02-11 04:07:00,71.8,70.3,29.98,SSW,212,5.0,11.0,95,0.00,,,0.00,meteohub,2013-02-11 10:07:00,
2013-02-11 04:13:00,71.4,69.6,29.99,SSW,213,5.0,11.0,94,0.00,,,0.00,meteohub,2013-02-11 10:13:00,
2013-02-11 04:18:00,71.6,69.8,29.99,SW,232,3.0,11.0,94,0.00,,,0.00,meteohub,2013-02-11 10:18:00,
2013-02-11 04:23:00,71.2,69.4,29.99,SW,232,6.0,14.0,94,0.00,,,0.00,meteohub,2013-02-11 10:23:00,
2013-02-11 04:28:00,71.2,69.4,29.99,WSW,244,8.0,14.0,94,0.00,,,0.00,meteohub,2013-02-11 10:28:00,
2013-02-11 04:33:00,71.1,69.3,30.00,WSW,239,13.0,14.0,94,0.00,,,0.00,meteohub,2013-02-11 10:33:00,
2013-02-11 04:38:00,71.2,69.1,30.00,WSW,253,7.0,17.0,93,0.00,,,0.00,meteohub,2013-02-11 10:38:00,
2013-02-11 04:43:00,71.2,69.1,30.00,WSW,258,9.0,17.0,93,0.00,,,0.00,meteohub,2013-02-11 10:43:00,
2013-02-11 04:48:00,71.2,69.1,30.00,WSW,250,12.0,17.0,93,0.00,,,0.00,meteohub,2013-02-11 10:48:00,
2013-02-11 04:53:00,71.2,69.1,30.00,WSW,240,13.0,16.0,93,0.00,,,0.00,meteohub,2013-02-11 10:53:00,
2013-02-11 04:58:00,71.2,69.1,30.01,WSW,243,10.0,16.0,93,0.00,,,0.00,meteohub,2013-02-11 10:58:00,
2013-02-11 05:03:00,71.1,68.9,30.01,WSW,256,6.0,16.0,93,0.00,,,0.00,meteohub,2013-02-11 11:03:00,
2013-02-11 05:08:00,71.1,68.9,30.01,West,261,7.0,16.0,93,0.00,,,0.00,meteohub,2013-02-11 11:08:00,
2013-02-11 05:13:00,70.9,69.1,30.01,WSW,254,5.0,12.0,94,0.00,,,0.00,meteohub,2013-02-11 11:13:00,
2013-02-11 05:18:00,70.9,69.1,30.01,West,265,5.0,12.0,94,0.00,,,0.00,meteohub,2013-02-11 11:18:00,
2013-02-11 05:23:00,69.8,66.4,30.02,WNW,299,12.0,12.0,89,0.00,,,0.00,meteohub,2013-02-11 11:23:00,
2013-02-11 05:28:00,66.7,62.8,30.03,NNW,335,14.0,18.0,87,0.00,,,0.00,meteohub,2013-02-11 11:28:00,
2013-02-11 05:33:00,64.6,60.6,30.04,NNW,348,21.0,22.0,87,0.00,,,0.00,meteohub,2013-02-11 11:33:00,
2013-02-11 05:38:00,63.3,59.7,30.04,North,0,14.0,22.0,88,0.00,,,0.00,meteohub,2013-02-11 11:38:00,
2013-02-11 05:43:00,62.2,58.6,30.05,North,350,10.0,24.0,88,0.00,,,0.00,meteohub,2013-02-11 11:43:00,
2013-02-11 05:48:00,61.5,58.3,30.05,NNE,18,12.0,24.0,89,0.00,,,0.00,meteohub,2013-02-11 11:48:00,
2013-02-11 05:53:00,60.6,57.4,30.05,NNE,26,15.0,24.0,89,0.00,,,0.00,meteohub,2013-02-11 11:53:00,
2013-02-11 05:58:00,60.4,57.6,30.06,North,355,16.0,25.0,90,0.00,,,0.00,meteohub,2013-02-11 11:58:00,
2013-02-11 06:03:00,60.1,56.8,30.06,NNE,20,21.0,25.0,89,0.00,,,0.00,meteohub,2013-02-11 12:03:00,
2013-02-11 06:08:00,59.5,56.3,30.07,NE,34,10.0,25.0,89,0.00,,,0.00,meteohub,2013-02-11 12:08:00,
2013-02-11 06:13:00,59.4,56.5,30.07,NNE,22,8.0,23.0,90,0.00,,,0.00,meteohub,2013-02-11 12:13:00,
2013-02-11 06:18:00,59.0,56.1,30.08,NNE,22,14.0,23.0,90,0.00,,,0.00,meteohub,2013-02-11 12:18:00,
2013-02-11 06:23:00,58.8,55.6,30.08,NNE,14,16.0,23.0,89,0.00,,,0.00,meteohub,2013-02-11 12:23:00,
2013-02-11 06:28:00,58.6,55.0,30.08,North,9,17.0,26.0,88,0.00,,,0.00,meteohub,2013-02-11 12:28:00,
2013-02-11 06:33:00,58.6,55.0,30.09,NNE,28,10.0,26.0,88,0.00,,,0.00,meteohub,2013-02-11 12:33:00,
2013-02-11 06:38:00,58.5,54.9,30.09,NNE,23,12.0,26.0,88,0.00,,,0.00,meteohub,2013-02-11 12:38:00,
2013-02-11 06:43:00,58.3,54.7,30.09,North,5,9.0,22.0,88,0.01,,,0.00,meteohub,2013-02-11 12:43:00,
2013-02-11 06:48:00,58.3,54.7,30.09,NNE,19,13.0,21.0,88,0.01,,,0.01,meteohub,2013-02-11 12:48:00,
2013-02-11 06:53:00,58.1,54.9,30.09,NE,39,9.0,21.0,89,0.01,,,0.01,meteohub,2013-02-11 12:53:00,
2013-02-11 06:58:00,58.3,54.7,30.09,NE,38,9.0,19.0,88,0.01,,,0.01,meteohub,2013-02-11 12:58:00,
2013-02-11 07:03:00,58.3,54.7,30.09,NE,42,14.0,18.0,88,0.01,,,0.01,meteohub,2013-02-11 13:03:00,
2013-02-11 07:08:00,58.3,54.7,30.09,NE,56,11.0,18.0,88,0.01,,,0.01,meteohub,2013-02-11 13:08:00,
2013-02-11 07:13:00,58.3,54.7,30.10,NE,34,11.0,18.0,88,0.01,,,0.01,meteohub,2013-02-11 13:13:00,
2013-02-11 07:18:00,58.1,54.9,30.10,NE,51,11.0,18.0,89,0.01,,,0.01,meteohub,2013-02-11 13:18:00,
2013-02-11 07:23:00,58.1,54.9,30.09,NNE,28,10.0,18.0,89,0.01,,,0.01,meteohub,2013-02-11 13:23:00,
2013-02-11 07:28:00,58.3,55.0,30.10,NE,34,8.0,20.0,89,0.01,,,0.01,meteohub,2013-02-11 13:28:00,
2013-02-11 07:33:00,58.3,55.0,30.09,NE,35,9.0,20.0,89,0.01,,,0.01,meteohub,2013-02-11 13:33:00,
2013-02-11 07:38:00,58.3,55.0,30.09,NE,41,16.0,20.0,89,0.01,,,0.01,meteohub,2013-02-11 13:38:00,
2013-02-11 07:43:00,58.5,54.9,30.10,NE,36,14.0,17.0,88,0.00,,,0.01,meteohub,2013-02-11 13:43:00,
2013-02-11 07:48:00,58.5,54.9,30.10,NNE,30,5.0,17.0,88,0.00,,,0.01,meteohub,2013-02-11 13:48:00,
2013-02-11 07:53:00,58.5,54.9,30.11,NE,44,13.0,17.0,88,0.00,,,0.01,meteohub,2013-02-11 13:53:00,
2013-02-11 07:59:00,58.5,54.9,30.11,NNE,22,12.0,17.0,88,0.00,,,0.01,meteohub,2013-02-11 13:59:00,
2013-02-11 08:04:00,58.6,55.0,30.11,NE,40,11.0,15.0,88,0.00,,,0.01,meteohub,2013-02-11 14:04:00,
2013-02-11 08:09:00,58.6,55.0,30.12,NE,36,7.0,15.0,88,0.00,,,0.01,meteohub,2013-02-11 14:09:00,
2013-02-11 08:14:00,58.6,55.0,30.13,NNE,19,12.0,16.0,88,0.00,,,0.01,meteohub,2013-02-11 14:14:00,
2013-02-11 08:19:00,58.6,55.0,30.13,North,355,7.0,17.0,88,0.00,,,0.01,meteohub,2013-02-11 14:19:00,
2013-02-11 08:24:00,58.6,55.0,30.14,North,355,8.0,17.0,88,0.00,,,0.01,meteohub,2013-02-11 14:24:00,
2013-02-11 08:29:00,58.5,54.9,30.13,North,5,13.0,17.0,88,0.00,,,0.01,meteohub,2013-02-11 14:29:00,
2013-02-11 08:34:00,58.5,54.9,30.14,North,0,9.0,19.0,88,0.00,,,0.01,meteohub,2013-02-11 14:34:00,
2013-02-11 08:39:00,58.3,54.7,30.14,NE,48,12.0,19.0,88,0.00,,,0.01,meteohub,2013-02-11 14:39:00,
2013-02-11 08:44:00,58.3,54.7,30.13,NE,44,10.0,19.0,88,0.00,,,0.01,meteohub,2013-02-11 14:44:00,
2013-02-11 08:49:00,58.1,54.5,30.13,NE,36,12.0,18.0,88,0.00,,,0.01,meteohub,2013-02-11 14:49:00,
2013-02-11 08:54:00,57.9,54.7,30.13,NE,47,15.0,18.0,89,0.00,,,0.01,meteohub,2013-02-11 14:54:00,
2013-02-11 08:59:00,57.9,54.7,30.13,NNE,25,8.0,18.0,89,0.00,,,0.01,meteohub,2013-02-11 14:59:00,
2013-02-11 09:04:00,57.9,54.7,30.13,NE,43,6.0,18.0,89,0.00,,,0.01,meteohub,2013-02-11 15:04:00,
2013-02-11 09:09:00,57.7,54.5,30.13,NE,43,6.0,15.0,89,0.00,,,0.01,meteohub,2013-02-11 15:09:00,
2013-02-11 09:14:00,57.9,54.7,30.14,NE,49,10.0,16.0,89,0.00,,,0.01,meteohub,2013-02-11 15:14:00,
2013-02-11 09:19:00,57.7,54.5,30.14,ENE,59,9.0,16.0,89,0.00,,,0.01,meteohub,2013-02-11 15:19:00,
2013-02-11 09:24:00,57.7,54.5,30.14,NE,55,9.0,16.0,89,0.00,,,0.01,meteohub,2013-02-11 15:24:00,
2013-02-11 09:29:00,57.7,54.1,30.14,NNE,31,9.0,21.0,88,0.00,,,0.01,meteohub,2013-02-11 15:29:00,
2013-02-11 09:34:00,57.7,54.1,30.13,ENE,59,12.0,21.0,88,0.00,,,0.01,meteohub,2013-02-11 15:34:00,
2013-02-11 09:39:00,57.7,54.5,30.14,NE,52,11.0,21.0,89,0.00,,,0.01,meteohub,2013-02-11 15:39:00,
2013-02-11 09:44:00,57.7,54.1,30.14,NE,38,10.0,17.0,88,0.00,,,0.01,meteohub,2013-02-11 15:44:00,
2013-02-11 09:49:00,57.7,54.1,30.14,ENE,61,11.0,17.0,88,0.00,,,0.01,meteohub,2013-02-11 15:49:00,
2013-02-11 09:54:00,57.7,54.1,30.13,ENE,59,14.0,17.0,88,0.00,,,0.01,meteohub,2013-02-11 15:54:00,
2013-02-11 09:59:00,57.7,54.1,30.12,ENE,59,14.0,18.0,88,0.00,,,0.01,meteohub,2013-02-11 15:59:00,
2013-02-11 10:04:00,57.7,54.1,30.13,ENE,59,7.0,21.0,88,0.00,,,0.01,meteohub,2013-02-11 16:04:00,
2013-02-11 10:09:00,57.7,54.1,30.13,NE,50,8.0,21.0,88,0.00,,,0.01,meteohub,2013-02-11 16:09:00,
2013-02-11 10:14:00,57.7,54.1,30.14,NE,42,8.0,21.0,88,0.00,,,0.01,meteohub,2013-02-11 16:14:00,
2013-02-11 10:19:00,57.7,54.1,30.14,NNE,33,16.0,21.0,88,0.00,,,0.01,meteohub,2013-02-11 16:19:00,
2013-02-11 10:24:00,57.6,53.8,30.13,NE,56,6.0,21.0,87,0.00,,,0.01,meteohub,2013-02-11 16:24:00,
2013-02-11 10:29:00,57.6,53.8,30.14,NE,34,8.0,21.0,87,0.00,,,0.01,meteohub,2013-02-11 16:29:00,
2013-02-11 10:34:00,57.4,53.6,30.13,NNE,30,13.0,17.0,87,0.00,,,0.01,meteohub,2013-02-11 16:34:00,
2013-02-11 10:39:00,57.4,53.6,30.12,NE,44,12.0,14.0,87,0.00,,,0.01,meteohub,2013-02-11 16:39:00,
2013-02-11 10:44:00,57.2,53.4,30.13,NNE,32,9.0,20.0,87,0.00,,,0.01,meteohub,2013-02-11 16:44:00,
2013-02-11 10:50:00,57.0,53.2,30.14,NNE,24,4.0,21.0,87,0.00,,,0.01,meteohub,2013-02-11 16:50:00,
2013-02-11 10:55:00,57.2,53.4,30.15,NNE,24,3.0,21.0,87,0.00,,,0.01,meteohub,2013-02-11 16:55:00,
2013-02-11 11:00:00,57.4,53.6,30.15,North,11,10.0,21.0,87,0.00,,,0.01,meteohub,2013-02-11 17:00:00,
2013-02-11 11:05:00,57.2,53.1,30.15,North,355,9.0,14.0,86,0.00,,,0.01,meteohub,2013-02-11 17:05:00,
2013-02-11 11:10:00,57.0,53.2,30.15,North,11,10.0,14.0,87,0.00,,,0.01,meteohub,2013-02-11 17:10:00,
2013-02-11 11:15:00,56.8,53.1,30.15,NNW,345,6.0,15.0,87,0.00,,,0.01,meteohub,2013-02-11 17:15:00,
2013-02-11 11:20:00,56.7,52.9,30.14,NNE,24,7.0,15.0,87,0.00,,,0.02,meteohub,2013-02-11 17:20:00,
2013-02-11 11:25:00,56.7,53.1,30.13,NE,38,7.0,15.0,88,0.01,,,0.02,meteohub,2013-02-11 17:25:00,
2013-02-11 11:30:00,56.5,52.9,30.12,NE,55,12.0,16.0,88,0.01,,,0.02,meteohub,2013-02-11 17:30:00,
2013-02-11 11:35:00,56.1,52.9,30.12,ENE,61,8.0,17.0,89,0.04,,,0.05,meteohub,2013-02-11 17:35:00,
2013-02-11 11:40:00,55.9,53.1,30.12,ENE,71,7.0,17.0,90,0.05,,,0.06,meteohub,2013-02-11 17:40:00,
2013-02-11 11:45:00,55.9,53.4,30.12,ENE,61,8.0,17.0,91,0.07,,,0.08,meteohub,2013-02-11 17:45:00,
2013-02-11 11:50:00,55.9,53.4,30.12,NE,50,8.0,15.0,91,0.07,,,0.08,meteohub,2013-02-11 17:50:00,
2013-02-11 11:55:00,55.9,53.4,30.13,NE,49,6.0,14.0,91,0.07,,,0.08,meteohub,2013-02-11 17:55:00,
2013-02-11 12:00:00,55.9,53.4,30.12,NE,35,5.0,13.0,91,0.07,,,0.08,meteohub,2013-02-11 18:00:00,
2013-02-11 12:05:00,55.9,53.4,30.11,NE,55,10.0,13.0,91,0.07,,,0.08,meteohub,2013-02-11 18:05:00,
2013-02-11 12:10:00,55.9,53.6,30.12,ENE,67,8.0,18.0,92,0.07,,,0.08,meteohub,2013-02-11 18:10:00,
2013-02-11 12:15:00,55.9,53.6,30.12,ENE,65,2.0,18.0,92,0.07,,,0.08,meteohub,2013-02-11 18:15:00,
2013-02-11 12:20:00,55.9,53.6,30.13,ENE,75,7.0,18.0,92,0.07,,,0.09,meteohub,2013-02-11 18:20:00,
2013-02-11 12:25:00,55.9,53.6,30.13,ENE,59,8.0,10.0,92,0.07,,,0.09,meteohub,2013-02-11 18:25:00,
2013-02-11 12:30:00,55.9,54.0,30.13,ENE,61,2.0,10.0,93,0.07,,,0.09,meteohub,2013-02-11 18:30:00,
2013-02-11 12:35:00,55.8,53.8,30.12,ENE,69,7.0,10.0,93,0.04,,,0.09,meteohub,2013-02-11 18:35:00,
2013-02-11 12:40:00,55.8,53.8,30.11,ENE,73,12.0,13.0,93,0.03,,,0.09,meteohub,2013-02-11 18:40:00,
2013-02-11 12:45:00,55.8,54.1,30.11,ENE,59,4.0,13.0,94,0.02,,,0.10,meteohub,2013-02-11 18:45:00,
2013-02-11 12:50:00,55.8,54.1,30.09,ENE,75,10.0,13.0,94,0.02,,,0.10,meteohub,2013-02-11 18:50:00,
2013-02-11 12:55:00,55.8,54.1,30.09,East,80,8.0,16.0,94,0.02,,,0.10,meteohub,2013-02-11 18:55:00,
2013-02-11 13:00:00,55.9,54.3,30.09,East,85,7.0,17.0,94,0.02,,,0.10,meteohub,2013-02-11 19:00:00,
2013-02-11 13:05:00,55.9,54.3,30.08,ENE,71,13.0,20.0,94,0.02,,,0.10,meteohub,2013-02-11 19:05:00,
2013-02-11 13:10:00,56.1,54.5,30.07,East,83,16.0,22.0,94,0.02,,,0.10,meteohub,2013-02-11 19:10:00,
2013-02-11 13:15:00,55.9,54.3,30.07,ESE,119,12.0,22.0,94,0.02,,,0.10,meteohub,2013-02-11 19:15:00,
2013-02-11 13:20:00,56.1,54.5,30.06,ESE,112,8.0,22.0,94,0.01,,,0.10,meteohub,2013-02-11 19:20:00,
2013-02-11 13:25:00,56.5,54.9,30.06,East,93,10.0,21.0,94,0.01,,,0.10,meteohub,2013-02-11 19:25:00,
2013-02-11 13:30:00,56.7,55.0,30.05,East,99,14.0,16.0,94,0.01,,,0.10,meteohub,2013-02-11 19:30:00,
2013-02-11 13:35:00,56.8,55.2,30.06,East,86,9.0,19.0,94,0.01,,,0.10,meteohub,2013-02-11 19:35:00,
2013-02-11 13:40:00,56.8,55.2,30.06,ESE,102,13.0,19.0,94,0.01,,,0.10,meteohub,2013-02-11 19:40:00,
2013-02-11 13:45:00,56.8,55.2,30.05,East,89,9.0,19.0,94,0.00,,,0.10,meteohub,2013-02-11 19:45:00,
2013-02-11 13:50:00,56.8,54.9,30.05,East,97,9.0,15.0,93,0.00,,,0.10,meteohub,2013-02-11 19:50:00,
2013-02-11 13:55:00,56.8,54.9,30.05,East,101,13.0,15.0,93,0.00,,,0.10,meteohub,2013-02-11 19:55:00,
2013-02-11 14:01:00,57.0,55.0,30.04,East,89,13.0,15.0,93,0.00,,,0.10,meteohub,2013-02-11 20:01:00,
2013-02-11 14:06:00,56.8,54.9,30.04,East,101,7.0,15.0,93,0.00,,,0.10,meteohub,2013-02-11 20:06:00,
2013-02-11 14:11:00,56.8,54.9,30.05,East,100,17.0,17.0,93,0.00,,,0.10,meteohub,2013-02-11 20:11:00,
2013-02-11 14:16:00,56.8,54.9,30.04,East,83,11.0,17.0,93,0.00,,,0.10,meteohub,2013-02-11 20:16:00,
2013-02-11 14:21:00,56.8,54.9,30.04,East,82,14.0,17.0,93,0.00,,,0.10,meteohub,2013-02-11 20:21:00,
2013-02-11 14:26:00,56.8,54.9,30.04,East,90,10.0,17.0,93,0.00,,,0.10,meteohub,2013-02-11 20:26:00,
2013-02-11 14:31:00,56.8,55.2,30.04,ESE,111,11.0,16.0,94,0.00,,,0.10,meteohub,2013-02-11 20:31:00,
2013-02-11 14:36:00,56.7,55.0,30.04,East,91,7.0,16.0,94,0.00,,,0.10,meteohub,2013-02-11 20:36:00,
2013-02-11 14:41:00,56.7,55.0,30.06,East,81,6.0,15.0,94,0.06,,,0.16,meteohub,2013-02-11 20:41:00,
2013-02-11 14:46:00,56.7,55.0,30.08,North,355,7.0,12.0,94,0.09,,,0.19,meteohub,2013-02-11 20:46:00,
2013-02-11 14:51:00,56.3,54.7,30.07,NE,54,8.0,11.0,94,0.22,,,0.31,meteohub,2013-02-11 20:51:00,
2013-02-11 14:56:00,56.1,54.7,30.07,ENE,76,4.0,10.0,95,0.28,,,0.38,meteohub,2013-02-11 20:56:00,
2013-02-11 15:01:00,56.1,54.7,30.07,NE,56,4.0,10.0,95,0.29,,,0.38,meteohub,2013-02-11 21:01:00,
2013-02-11 15:06:00,56.1,54.7,30.06,ENE,64,9.0,11.0,95,0.30,,,0.40,meteohub,2013-02-11 21:06:00,
2013-02-11 15:11:00,55.9,54.9,30.07,ENE,72,0.0,12.0,96,0.31,,,0.41,meteohub,2013-02-11 21:11:00,
2013-02-11 15:16:00,56.1,55.0,30.06,East,84,15.0,15.0,96,0.33,,,0.43,meteohub,2013-02-11 21:16:00,
2013-02-11 15:21:00,55.9,54.9,30.06,ENE,76,7.0,17.0,96,0.34,,,0.44,meteohub,2013-02-11 21:21:00,
2013-02-11 15:26:00,56.1,55.0,30.08,ENE,69,1.0,17.0,96,0.34,,,0.44,meteohub,2013-02-11 21:26:00,
2013-02-11 15:31:00,56.1,55.0,30.05,ENE,65,13.0,17.0,96,0.34,,,0.44,meteohub,2013-02-11 21:31:00,
2013-02-11 15:36:00,56.1,55.0,30.06,NE,47,3.0,17.0,96,0.34,,,0.44,meteohub,2013-02-11 21:36:00,
2013-02-11 15:41:00,56.1,55.0,30.06,NNE,32,4.0,17.0,96,0.29,,,0.45,meteohub,2013-02-11 21:41:00,
2013-02-11 15:46:00,55.9,54.9,30.07,NE,46,7.0,17.0,96,0.28,,,0.46,meteohub,2013-02-11 21:46:00,
2013-02-11 15:51:00,56.1,55.0,30.07,ENE,58,7.0,10.0,96,0.16,,,0.48,meteohub,2013-02-11 21:51:00,
2013-02-11 15:56:00,56.1,55.2,30.07,NE,52,3.0,10.0,97,0.13,,,0.50,meteohub,2013-02-11 21:56:00,
2013-02-11 16:01:00,55.9,55.0,30.07,NE,54,5.0,10.0,97,0.18,,,0.57,meteohub,2013-02-11 22:01:00,
2013-02-11 16:06:00,55.9,54.9,30.06,ENE,71,10.0,13.0,96,0.18,,,0.58,meteohub,2013-02-11 22:06:00,
2013-02-11 16:11:00,55.9,55.0,30.07,NE,45,3.0,13.0,97,0.17,,,0.58,meteohub,2013-02-11 22:11:00,
2013-02-11 16:16:00,55.9,55.0,30.07,NE,45,2.0,13.0,97,0.15,,,0.58,meteohub,2013-02-11 22:16:00,
2013-02-11 16:21:00,55.9,55.0,30.07,NE,48,7.0,12.0,97,0.15,,,0.59,meteohub,2013-02-11 22:21:00,
2013-02-11 16:26:00,55.9,55.0,30.06,East,93,6.0,9.0,97,0.15,,,0.59,meteohub,2013-02-11 22:26:00,
2013-02-11 16:31:00,56.1,55.2,30.06,East,86,7.0,11.0,97,0.16,,,0.60,meteohub,2013-02-11 22:31:00,
2013-02-11 16:36:00,56.1,55.2,30.06,ENE,59,4.0,11.0,97,0.15,,,0.60,meteohub,2013-02-11 22:36:00,
2013-02-11 16:41:00,56.1,55.2,30.07,NE,52,4.0,11.0,97,0.15,,,0.60,meteohub,2013-02-11 22:41:00,
2013-02-11 16:46:00,55.9,55.0,30.09,NE,46,2.0,9.0,97,0.14,,,0.61,meteohub,2013-02-11 22:46:00,
2013-02-11 16:51:00,55.9,55.0,30.08,ENE,61,4.0,9.0,97,0.13,,,0.61,meteohub,2013-02-11 22:51:00,
2013-02-11 16:56:00,55.9,55.0,30.06,ENE,71,9.0,9.0,97,0.12,,,0.64,meteohub,2013-02-11 22:56:00,
2013-02-11 17:01:00,56.1,55.2,30.06,East,86,9.0,11.0,97,0.08,,,0.65,meteohub,2013-02-11 23:01:00,
2013-02-11 17:06:00,56.1,55.2,30.06,East,80,9.0,12.0,97,0.07,,,0.65,meteohub,2013-02-11 23:06:00,
2013-02-11 17:11:00,56.1,55.2,30.06,East,82,6.0,13.0,97,0.07,,,0.65,meteohub,2013-02-11 23:11:00,
2013-02-11 17:16:00,56.3,55.4,30.06,East,99,8.0,13.0,97,0.08,,,0.66,meteohub,2013-02-11 23:16:00,
2013-02-11 17:21:00,56.3,55.4,30.06,ESE,102,11.0,13.0,97,0.08,,,0.67,meteohub,2013-02-11 23:21:00,
2013-02-11 17:26:00,56.3,55.4,30.06,ESE,102,7.0,13.0,97,0.08,,,0.67,meteohub,2013-02-11 23:26:00,
2013-02-11 17:31:00,56.5,55.6,30.06,East,80,8.0,13.0,97,0.07,,,0.67,meteohub,2013-02-11 23:31:00,
2013-02-11 17:36:00,56.5,55.6,30.06,ENE,78,4.0,13.0,97,0.07,,,0.67,meteohub,2013-02-11 23:36:00,
2013-02-11 17:41:00,56.5,55.6,30.07,ENE,65,2.0,13.0,97,0.07,,,0.67,meteohub,2013-02-11 23:41:00,
2013-02-11 17:46:00,56.3,55.4,30.06,East,86,8.0,10.0,97,0.06,,,0.67,meteohub,2013-02-11 23:46:00,
2013-02-11 17:51:00,56.5,55.6,30.06,East,89,8.0,13.0,97,0.06,,,0.67,meteohub,2013-02-11 23:51:00,
2013-02-11 17:56:00,56.5,55.6,30.06,East,101,5.0,13.0,97,0.04,,,0.68,meteohub,2013-02-11 23:56:00,
2013-02-11 18:01:00,56.5,55.6,30.07,East,82,3.0,13.0,97,0.03,,,0.68,meteohub,2013-02-12 00:01:00,
2013-02-11 18:06:00,56.5,55.6,30.06,ENE,67,8.0,12.0,97,0.03,,,0.68,meteohub,2013-02-12 00:06:00,
2013-02-11 18:11:00,56.5,55.6,30.06,ENE,68,13.0,15.0,97,0.03,,,0.68,meteohub,2013-02-12 00:11:00,
2013-02-11 18:16:00,56.1,55.2,30.07,NE,38,0.0,15.0,97,0.01,,,0.68,meteohub,2013-02-12 00:16:00,
2013-02-11 18:21:00,56.1,55.2,30.07,NE,38,2.0,15.0,97,0.01,,,0.68,meteohub,2013-02-12 00:21:00,
2013-02-11 18:27:00,56.1,55.2,30.07,NE,48,5.0,14.0,97,0.01,,,0.68,meteohub,2013-02-12 00:27:00,
2013-02-11 18:32:00,56.1,55.2,30.07,ENE,62,0.0,9.0,97,0.01,,,0.68,meteohub,2013-02-12 00:32:00,
2013-02-11 18:37:00,56.3,55.4,30.08,ENE,62,3.0,9.0,97,0.01,,,0.68,meteohub,2013-02-12 00:37:00,
2013-02-11 18:42:00,56.3,55.4,30.06,ENE,67,11.0,11.0,97,0.02,,,0.69,meteohub,2013-02-12 00:42:00,
2013-02-11 18:47:00,56.3,55.4,30.07,ENE,60,3.0,14.0,97,0.02,,,0.69,meteohub,2013-02-12 00:47:00,
2013-02-11 18:52:00,56.3,55.4,30.08,NE,47,5.0,14.0,97,0.02,,,0.69,meteohub,2013-02-12 00:52:00,
2013-02-11 18:57:00,56.3,55.4,30.07,NE,39,8.0,14.0,97,0.01,,,0.69,meteohub,2013-02-12 00:57:00,
2013-02-11 19:02:00,56.1,55.2,30.08,NE,44,3.0,11.0,97,0.01,,,0.69,meteohub,2013-02-12 01:02:00,
2013-02-11 19:07:00,56.1,55.2,30.08,ENE,61,7.0,11.0,97,0.02,,,0.70,meteohub,2013-02-12 01:07:00,
2013-02-11 19:12:00,56.1,55.2,30.08,NE,55,8.0,11.0,97,0.03,,,0.71,meteohub,2013-02-12 01:12:00,
2013-02-11 19:17:00,55.9,55.0,30.07,ENE,73,8.0,11.0,97,0.03,,,0.71,meteohub,2013-02-12 01:17:00,
2013-02-11 19:22:00,55.9,55.0,30.07,ENE,64,7.0,12.0,97,0.03,,,0.71,meteohub,2013-02-12 01:22:00,
2013-02-11 19:27:00,55.9,55.0,30.07,ENE,71,5.0,12.0,97,0.03,,,0.71,meteohub,2013-02-12 01:27:00,
2013-02-11 19:32:00,55.9,55.0,30.07,ENE,67,4.0,12.0,97,0.04,,,0.72,meteohub,2013-02-12 01:32:00,
2013-02-11 19:37:00,55.9,55.0,30.06,NE,54,6.0,12.0,97,0.04,,,0.72,meteohub,2013-02-12 01:37:00,
2013-02-11 19:42:00,55.9,55.0,30.06,NE,52,6.0,12.0,97,0.03,,,0.72,meteohub,2013-02-12 01:42:00,
2013-02-11 19:47:00,55.9,55.0,30.06,ENE,78,9.0,12.0,97,0.03,,,0.72,meteohub,2013-02-12 01:47:00,
2013-02-11 19:52:00,55.9,55.0,30.07,NE,55,6.0,12.0,97,0.03,,,0.72,meteohub,2013-02-12 01:52:00,
2013-02-11 19:57:00,55.9,55.0,30.07,ENE,78,8.0,14.0,97,0.03,,,0.72,meteohub,2013-02-12 01:57:00,
2013-02-11 20:02:00,56.1,55.2,30.07,ENE,57,10.0,14.0,97,0.03,,,0.72,meteohub,2013-02-12 02:02:00,
2013-02-11 20:07:00,55.9,55.0,30.06,ENE,66,9.0,14.0,97,0.02,,,0.72,meteohub,2013-02-12 02:07:00,
2013-02-11 20:12:00,55.9,55.0,30.07,ENE,77,5.0,13.0,97,0.01,,,0.72,meteohub,2013-02-12 02:12:00,
2013-02-11 20:17:00,55.9,55.0,30.07,ENE,68,7.0,13.0,97,0.01,,,0.72,meteohub,2013-02-12 02:17:00,
2013-02-11 20:22:00,55.9,55.0,30.07,ENE,57,9.0,13.0,97,0.01,,,0.72,meteohub,2013-02-12 02:22:00,
2013-02-11 20:27:00,55.9,55.0,30.07,ENE,65,7.0,13.0,97,0.01,,,0.72,meteohub,2013-02-12 02:27:00,
2013-02-11 20:32:00,55.9,55.0,30.08,ENE,58,5.0,13.0,97,0.00,,,0.72,meteohub,2013-02-12 02:32:00,
2013-02-11 20:37:00,55.9,55.0,30.08,NNE,26,9.0,13.0,97,0.01,,,0.73,meteohub,2013-02-12 02:37:00,
2013-02-11 20:42:00,55.9,55.0,30.08,NNE,23,7.0,13.0,97,0.01,,,0.73,meteohub,2013-02-12 02:42:00,
2013-02-11 20:47:00,56.1,55.2,30.08,NNE,21,6.0,13.0,97,0.01,,,0.73,meteohub,2013-02-12 02:47:00,
2013-02-11 20:52:00,55.9,55.0,30.07,NE,56,7.0,13.0,97,0.01,,,0.73,meteohub,2013-02-12 02:52:00,
2013-02-11 20:57:00,55.9,55.0,30.06,ENE,65,8.0,14.0,97,0.01,,,0.73,meteohub,2013-02-12 02:57:00,
2013-02-11 21:02:00,55.9,55.0,30.07,NE,51,7.0,14.0,97,0.01,,,0.73,meteohub,2013-02-12 03:02:00,
2013-02-11 21:07:00,55.9,55.0,30.07,NE,42,8.0,14.0,97,0.01,,,0.73,meteohub,2013-02-12 03:07:00,
2013-02-11 21:08:00,55.9,55.0,30.07,NE,49,6.0,14.0,97,0.01,,,0.73,meteohub,2013-02-12 03:08:00,
2013-02-11 21:17:00,55.9,55.0,30.06,ENE,76,4.0,13.0,97,0.01,,,0.73,meteohub,2013-02-12 03:17:00,
2013-02-11 21:22:00,55.9,55.0,30.07,ENE,59,4.0,13.0,97,0.01,,,0.73,meteohub,2013-02-12 03:22:00,
2013-02-11 21:27:00,55.9,55.0,30.07,ENE,60,5.0,13.0,97,0.01,,,0.73,meteohub,2013-02-12 03:27:00,
2013-02-11 21:32:00,55.9,55.0,30.07,NE,53,6.0,12.0,97,0.00,,,0.73,meteohub,2013-02-12 03:32:00,
2013-02-11 21:37:00,55.9,55.0,30.07,NE,40,8.0,12.0,97,0.00,,,0.73,meteohub,2013-02-12 03:37:00,
2013-02-11 21:42:00,55.9,55.0,30.06,ENE,67,11.0,12.0,97,0.00,,,0.73,meteohub,2013-02-12 03:42:00,
2013-02-11 21:47:00,55.9,55.0,30.06,ENE,74,8.0,13.0,97,0.01,,,0.74,meteohub,2013-02-12 03:47:00,
2013-02-11 21:52:00,55.9,55.0,30.05,East,84,9.0,14.0,97,0.01,,,0.74,meteohub,2013-02-12 03:52:00,
2013-02-11 21:57:00,55.9,55.0,30.06,ENE,69,7.0,14.0,97,0.01,,,0.74,meteohub,2013-02-12 03:57:00,
2013-02-11 22:02:00,55.9,55.0,30.06,ENE,74,17.0,17.0,97,0.01,,,0.74,meteohub,2013-02-12 04:02:00,
2013-02-11 22:07:00,55.9,55.0,30.04,East,80,13.0,18.0,97,0.01,,,0.74,meteohub,2013-02-12 04:07:00,
2013-02-11 22:12:00,55.9,55.0,30.05,ENE,67,8.0,18.0,97,0.01,,,0.74,meteohub,2013-02-12 04:12:00,
2013-02-11 22:17:00,55.9,55.0,30.04,East,81,11.0,18.0,97,0.01,,,0.74,meteohub,2013-02-12 04:17:00,
2013-02-11 22:22:00,55.9,55.0,30.04,East,80,11.0,16.0,97,0.01,,,0.74,meteohub,2013-02-12 04:22:00,
2013-02-11 22:27:00,56.1,55.2,30.02,East,85,10.0,16.0,97,0.01,,,0.74,meteohub,2013-02-12 04:27:00,
2013-02-11 22:32:00,56.1,55.2,30.03,ENE,76,12.0,18.0,97,0.01,,,0.74,meteohub,2013-02-12 04:32:00,
2013-02-11 22:37:00,56.1,55.2,30.05,ENE,72,5.0,18.0,97,0.01,,,0.74,meteohub,2013-02-12 04:37:00,
2013-02-11 22:42:00,56.1,55.2,30.05,ENE,76,5.0,18.0,97,0.01,,,0.74,meteohub,2013-02-12 04:42:00,
2013-02-11 22:47:00,55.9,55.0,30.04,ENE,77,12.0,17.0,97,0.00,,,0.74,meteohub,2013-02-12 04:47:00,
2013-02-11 22:53:00,56.1,55.2,30.04,ENE,78,9.0,16.0,97,0.00,,,0.74,meteohub,2013-02-12 04:53:00,
2013-02-11 22:58:00,56.1,55.2,30.04,East,82,9.0,14.0,97,0.00,,,0.74,meteohub,2013-02-12 04:58:00,
2013-02-11 23:00:00,56.1,55.2,30.04,East,80,10.0,14.0,97,0.00,,,0.74,meteohub,2013-02-12 05:00:00,
2013-02-11 23:05:00,56.1,55.2,30.03,NE,53,8.0,17.0,97,0.00,,,0.74,meteohub,2013-02-12 05:05:00,
2013-02-11 23:10:00,56.1,55.2,30.04,East,88,8.0,17.0,97,0.00,,,0.74,meteohub,2013-02-12 05:10:00,
2013-02-11 23:15:00,56.1,55.2,30.06,East,80,7.0,15.0,97,0.00,,,0.74,meteohub,2013-02-12 05:15:00,
2013-02-11 23:20:00,56.1,55.2,30.04,ENE,78,10.0,15.0,97,0.00,,,0.74,meteohub,2013-02-12 05:20:00,
2013-02-11 23:26:00,56.1,55.2,30.03,East,92,7.0,17.0,97,0.00,,,0.74,meteohub,2013-02-12 05:26:00,
2013-02-11 23:31:00,56.3,55.4,30.03,East,96,10.0,19.0,97,0.00,,,0.74,meteohub,2013-02-12 05:31:00,
2013-02-11 23:36:00,56.3,55.4,30.06,ENE,71,3.0,19.0,97,0.01,,,0.75,meteohub,2013-02-12 05:36:00,
2013-02-11 23:41:00,56.1,55.2,30.08,North,355,8.0,19.0,97,0.01,,,0.75,meteohub,2013-02-12 05:41:00,
2013-02-11 23:46:00,55.9,55.0,30.09,NNW,332,11.0,16.0,97,0.02,,,0.76,meteohub,2013-02-12 05:46:00,
2013-02-11 23:51:00,55.9,55.0,30.05,ENE,60,5.0,16.0,97,0.03,,,0.77,meteohub,2013-02-12 05:51:00,
2013-02-11 23:56:00,55.9,55.0,30.06,NNE,19,5.0,16.0,97,0.05,,,0.79,meteohub,2013-02-12 05:56:00,